Airfield :
LOGIN :

Register | Disclaimer

   EN    FR    IT 

 










Legend :    VFR   Marginal VFR   IFR   Intensive IFR   Very Intensive IFR
Visi :
Ceiling :
>= 8 km
>= 3000ft
5 to 8 km
1000 to 3000 ft
1500m to 5 km
500 to 1000 ft
800 to 1500m
200 to 500 ft
< 800m
< 200 ft
Symbols :   Thunderstorms  Fog  Heavy snow  Heavy precipitations  Wind > 20 kt
SIGMETs :     Misc.  Thunderstorms  Icing  Turbulence  Mountain Waves  Volcanic Ashes






- Airport Elevation : 102 ft
- IATA code : EXT


EGTE - Exeter

CURRENT METAR :
  • 271620Z 19007KT 9999 SCT030 16/09 Q1015

EXPIRED METARs :
  • 271550Z 23009KT 9999 SCT030 17/09 Q1015
  • 271520Z 23012KT 9999 SCT030 16/08 Q1015
  • 271450Z 22010KT 9999 VCSH SCT030 16/08 Q1015
  • 271420Z 23008KT 210V270 9999 VCSH SCT030 17/09 Q1015
  • 271350Z 22014KT 9999 VCSH SCT030 16/09 Q1015
  • 271320Z 24009KT 200V280 9999 VCSH SCT030 18/09 Q1015
  • 271250Z 25006KT 210V290 9999 -SHRA SCT030 16/09 Q1015
  • 271220Z 21010KT 150V240 9999 8000NE VCSH SCT030 16/09 Q1015
  • 271150Z 21015KT 9999 8000NE VCSH SCT030 16/09 Q1015

TAF TAF EGTE
Valid from the 27 at 15:00 until the 28 at 00:00 UTC


271357Z 2715/2724 23009KT 9999 SCT030
TEMPO 2715/2718 6000 SHRA
PROB30
TEMPO 2715/2716 3000 +SHRA
TEMPO 2718/2724 6000 RADZ BKN009



MET'MAP, your aeronautical weather chart ! - Copyright ORBIFLY December 2007 - Disclaimer

ORBIFLY MET'MAP TEAM :

Programming & Development : Alexandra Zaïnal
Original concept : Baudouin d'Aumeries
Technical & hardware support : Manuel Goepfert
Assistance : Marc-Olivier Méhu




SOURCES & CREDITS :

   NOAA